地図

経路データ

SID SEASON NUMBER BASIN SUBBASIN NAME ISO_TIME NATURE LAT LON WMO_WIND WMO_PRES WMO_AGENCY TRACK_TYPE DIST2LAND LANDFALL IFLAG USA_AGENCY USA_ATCF_ID USA_LAT USA_LON USA_RECORD USA_STATUS USA_WIND USA_PRES USA_SSHS USA_R34_NE USA_R34_SE USA_R34_SW USA_R34_NW USA_R50_NE USA_R50_SE USA_R50_SW USA_R50_NW USA_R64_NE USA_R64_SE USA_R64_SW USA_R64_NW USA_POCI USA_ROCI USA_RMW USA_EYE TOKYO_LAT TOKYO_LON TOKYO_GRADE TOKYO_WIND TOKYO_PRES TOKYO_R50_DIR TOKYO_R50_LONG TOKYO_R50_SHORT TOKYO_R30_DIR TOKYO_R30_LONG TOKYO_R30_SHORT TOKYO_LAND CMA_LAT CMA_LON CMA_CAT CMA_WIND CMA_PRES HKO_LAT HKO_LON HKO_CAT HKO_WIND HKO_PRES NEWDELHI_LAT NEWDELHI_LON NEWDELHI_GRADE NEWDELHI_WIND NEWDELHI_PRES NEWDELHI_CI NEWDELHI_DP NEWDELHI_POCI REUNION_LAT REUNION_LON REUNION_TYPE REUNION_WIND REUNION_PRES REUNION_TNUM REUNION_CI REUNION_RMW REUNION_R34_NE REUNION_R34_SE REUNION_R34_SW REUNION_R34_NW REUNION_R50_NE REUNION_R50_SE REUNION_R50_SW REUNION_R50_NW REUNION_R64_NE REUNION_R64_SE REUNION_R64_SW REUNION_R64_NW BOM_LAT BOM_LON BOM_TYPE BOM_WIND BOM_PRES BOM_TNUM BOM_CI BOM_RMW BOM_R34_NE BOM_R34_SE BOM_R34_SW BOM_R34_NW BOM_R50_NE BOM_R50_SE BOM_R50_SW BOM_R50_NW BOM_R64_NE BOM_R64_SE BOM_R64_SW BOM_R64_NW BOM_ROCI BOM_POCI BOM_EYE BOM_POS_METHOD BOM_PRES_METHOD NADI_LAT NADI_LON NADI_CAT NADI_WIND NADI_PRES WELLINGTON_LAT WELLINGTON_LON WELLINGTON_WIND WELLINGTON_PRES DS824_LAT DS824_LON DS824_STAGE DS824_WIND DS824_PRES TD9636_LAT TD9636_LON TD9636_STAGE TD9636_WIND TD9636_PRES TD9635_LAT TD9635_LON TD9635_WIND TD9635_PRES TD9635_ROCI NEUMANN_LAT NEUMANN_LON NEUMANN_CLASS NEUMANN_WIND NEUMANN_PRES MLC_LAT MLC_LON MLC_CLASS MLC_WIND MLC_PRES USA_GUST BOM_GUST BOM_GUST_PER REUNION_GUST REUNION_GUST_PER USA_SEAHGT USA_SEARAD_NE USA_SEARAD_SE USA_SEARAD_SW USA_SEARAD_NW STORM_SPEED STORM_DIR
1973265N13258 1973 101 EP MM IRAH 1973-09-22 00:00:00 TS 13.2200 -102.060 30 hurdat_epa main 468 454 O________OO___ hurdat_epa EP091973 13.2000 -102.100 TD 30 -1 13.2000 -102.100 TC 30 13.3000 -101.900 1 30 6 307
1973265N13258 1973 101 EP MM IRAH 1973-09-22 03:00:00 TS 13.4140 -102.325 main 454 440 P________PP___ EP091973 13.4026 -102.362 TD 30 -1 13.4026 -102.362 TC 30 13.4596 -102.176 1 30 6 308
1973265N13258 1973 101 EP MM IRAH 1973-09-22 06:00:00 TS 13.6050 -102.572 30 hurdat_epa main 444 427 O________OP___ hurdat_epa EP091973 13.6000 -102.600 TD 30 -1 13.6000 -102.600 TC 30 13.6252 -102.462 1 30 6 309
1973265N13258 1973 101 EP MM IRAH 1973-09-22 09:00:00 TS 13.7945 -102.804 main 432 421 P________PP___ EP091973 13.7923 -102.813 TD 30 -1 13.7923 -102.813 TC 30 13.8033 -102.767 1 30 6 308
1973265N13258 1973 101 EP MM IRAH 1973-09-22 12:00:00 TS 14.0000 -103.100 30 hurdat_epa main 426 422 O________OO___ hurdat_epa EP091973 14.0000 -103.100 TD 30 -1 14.0000 -103.100 TC 30 14.0000 -103.100 1 30 9 302
1973265N13258 1973 101 EP MM IRAH 1973-09-22 15:00:00 TS 14.2384 -103.550 main 431 419 P________PP___ EP091973 14.2426 -103.570 TD 30 -1 14.2426 -103.570 TC 30 14.2217 -103.469 1 32 11 298
1973265N13258 1973 101 EP MM IRAH 1973-09-22 18:00:00 TS 14.4949 -104.055 30 hurdat_epa main 422 412 O________OP___ hurdat_epa EP091973 14.5000 -104.100 TD 30 -1 14.5000 -104.100 TC 30 14.4747 -103.876 1 35 11 298
1973265N13258 1973 101 EP MM IRAH 1973-09-22 21:00:00 TS 14.7349 -104.504 main 415 398 P________PP___ EP091973 14.7273 -104.550 TD 35 0 14.7273 -104.550 TC 35 14.7653 -104.320 1 37 10 301
1973265N13258 1973 101 EP MM IRAH 1973-09-23 00:00:00 TS 15.0200 -104.960 40 hurdat_epa main 402 382 O________OO___ hurdat_epa EP091973 15.0000 -105.000 TS 40 0 15.0000 -105.000 TC 40 15.1000 -104.800 2 40 11 305
1973265N13258 1973 101 EP MM IRAH 1973-09-23 03:00:00 TS 15.3879 -105.453 main 388 378 P________PP___ EP091973 15.3624 -105.493 TS 40 0 15.3624 -105.493 TC 40 15.4896 -105.294 2 40 13 310
1973265N13258 1973 101 EP MM IRAH 1973-09-23 06:00:00 TS 15.8239 -105.965 40 hurdat_epa main 385 366 O________OP___ hurdat_epa EP091973 15.8000 -106.000 TS 40 0 15.8000 -106.000 TC 40 15.9194 -105.825 2 40 14 313
1973265N13258 1973 101 EP MM IRAH 1973-09-23 09:00:00 TS 16.3188 -106.479 main 371 348 P________PP___ EP091973 16.3074 -106.500 TS 40 0 16.3074 -106.500 TC 40 16.3644 -106.394 2 40 14 314
1973265N13258 1973 101 EP MM IRAH 1973-09-23 12:00:00 TS 16.8000 -107.000 40 hurdat_epa main 355 353 O________OO___ hurdat_epa EP091973 16.8000 -107.000 TS 40 0 16.8000 -107.000 TC 40 16.8000 -107.000 2 40 13 310
1973265N13258 1973 101 EP MM IRAH 1973-09-23 15:00:00 TS 17.1810 -107.557 main 368 368 P________PP___ EP091973 17.1724 -107.508 TS 55 0 17.1724 -107.508 TC 55 17.2155 -107.755 2 48 13 304
1973265N13258 1973 101 EP MM IRAH 1973-09-23 18:00:00 TS 17.5225 -108.106 70 972 hurdat_epa main 384 384 O________OP___ hurdat_epa EP091973 17.5000 -108.000 HU 70 972 1 17.5000 -108.000 TC 70 972 17.6125 -108.528 2 57 13 304
1973265N13258 1973 101 EP MM IRAH 1973-09-23 21:00:00 TS 17.8876 -108.638 main 401 401 P________PP___ EP091973 17.8650 -108.495 HU 72 1 17.8650 -108.495 TC 72 17.9779 -109.211 2 66 11 308
1973265N13258 1973 101 EP MM IRAH 1973-09-24 00:00:00 TS 18.2200 -109.060 75 hurdat_epa main 428 423 O________OO___ hurdat_epa EP091973 18.2000 -108.900 HU 75 1 18.2000 -108.900 TC 75 18.3000 -109.700 4 75 8 315
1973265N13258 1973 101 EP MM IRAH 1973-09-24 03:00:00 TS 18.4759 -109.267 main 432 427 P________PP___ EP091973 18.4573 -109.130 HU 75 1 18.4573 -109.130 TC 75 18.5504 -109.812 4 76 6 328
1973265N13258 1973 101 EP MM IRAH 1973-09-24 06:00:00 TS 18.7127 -109.386 75 hurdat_epa main 431 426 O________OP___ hurdat_epa EP091973 18.7000 -109.300 HU 75 1 18.7000 -109.300 TC 75 18.7634 -109.731 4 77 6 332
1973265N13258 1973 101 EP MM IRAH 1973-09-24 09:00:00 TS 18.9879 -109.551 main 436 402 P________PP___ EP091973 18.9925 -109.543 HU 77 1 18.9925 -109.543 TC 77 18.9697 -109.584 4 78 7 329
1973265N13258 1973 101 EP MM IRAH 1973-09-24 12:00:00 TS 19.2800 -109.740 80 hurdat_epa main 402 369 O________OO___ hurdat_epa EP091973 19.3000 -109.800 HU 80 1 19.3000 -109.800 TC 80 19.2000 -109.500 4 80 7 325
1973265N13258 1973 101 EP MM IRAH 1973-09-24 15:00:00 TS 19.5717 -109.977 main 369 336 P________PP___ EP091973 19.5925 -110.050 HU 85 2 19.5925 -110.050 TC 85 19.4885 -109.683 4 82 8 322
1973265N13258 1973 101 EP MM IRAH 1973-09-24 18:00:00 TS 19.8811 -110.229 90 955 hurdat_epa main 336 306 O________OP___ hurdat_epa EP091973 19.9000 -110.300 HU 90 955 2 19.9000 -110.300 TC 90 955 19.8056 -109.946 4 85 8 323
1973265N13258 1973 101 EP MM IRAH 1973-09-24 21:00:00 TS 20.2230 -110.505 main 306 267 P________PP___ EP091973 20.2425 -110.572 HU 90 2 20.2425 -110.572 TC 90 20.1448 -110.236 4 87 9 326
1973265N13258 1973 101 EP MM IRAH 1973-09-25 00:00:00 TS 20.5800 -110.740 90 hurdat_epa main 267 242 O________OO___ hurdat_epa EP091973 20.6000 -110.800 HU 90 2 20.6000 -110.800 TC 90 20.5000 -110.500 4 90 8 333
1973265N13258 1973 101 EP MM IRAH 1973-09-25 03:00:00 TS 20.9280 -110.884 main 242 206 P________PP___ EP091973 20.9499 -110.930 HU 92 2 20.9499 -110.930 TC 92 20.8402 -110.701 4 90 7 343
1973265N13258 1973 101 EP MM IRAH 1973-09-25 06:00:00 TS 21.2795 -110.972 95 hurdat_epa main 206 178 O________OP___ hurdat_epa EP091973 21.3000 -111.000 HU 95 2 21.3000 -111.000 TC 95 21.1973 -110.862 4 90 7 348
1973265N13258 1973 101 EP MM IRAH 1973-09-25 09:00:00 TS 21.6182 -111.051 main 184 151 P________PP___ EP091973 21.6275 -111.072 HU 92 2 21.6275 -111.072 TC 92 21.5808 -110.967 4 90 7 352
1973265N13258 1973 101 EP MM IRAH 1973-09-25 12:00:00 TS 22.0000 -111.080 90 hurdat_epa main 151 125 O________OO___ hurdat_epa EP091973 22.0000 -111.100 HU 90 2 22.0000 -111.100 TC 90 22.0000 -111.000 4 90 9 358
1973265N13258 1973 101 EP MM IRAH 1973-09-25 15:00:00 TS 22.4764 -111.056 main 121 88 P________PP___ EP091973 22.4775 -111.073 HU 80 1 22.4775 -111.073 TC 80 22.4718 -110.987 4 83 10 5
1973265N13258 1973 101 EP MM IRAH 1973-09-25 18:00:00 TS 22.9954 -110.980 70 983 hurdat_epa main 88 37 O________OP___ hurdat_epa EP091973 23.0000 -111.000 HU 70 983 1 23.0000 -111.000 TC 70 983 22.9770 -110.900 4 77 10 8
1973265N13258 1973 101 EP MM IRAH 1973-09-25 21:00:00 TS 23.4986 -110.909 main 37 0 P________PP___ EP091973 23.4998 -110.952 HU 67 1 23.4998 -110.952 TC 67 23.4936 -110.737 4 71 10 12
1973265N13258 1973 101 EP MM IRAH 1973-09-26 00:00:00 TS 24.0000 -110.740 65 hurdat_epa main 0 0 O________OO___ hurdat_epa EP091973 24.0000 -110.800 HU 65 1 24.0000 -110.800 TC 65 24.0000 -110.500 4 65 11 25
1973265N13258 1973 101 EP MM IRAH 1973-09-26 03:00:00 TS 24.5019 -110.406 main 24 24 P________PP___ EP091973 24.5075 -110.460 HU 57 0 24.5075 -110.460 TC 57 24.4792 -110.192 4 12 35
1973265N13258 1973 101 EP MM IRAH 1973-09-26 06:00:00 TS 24.9895 -109.973 50 hurdat_epa main 74 34 O________OP___ hurdat_epa EP091973 25.0000 -110.000 TS 50 0 25.0000 -110.000 TC 50 24.9338 -109.828 4 13 40
1973265N13258 1973 101 EP MM IRAH 1973-09-26 09:00:00 TS 25.4680 -109.498 main 24 0 P________PP___ EP091973 25.4800 -109.508 TS 42 0 25.4800 -109.508 TC 42 25.3715 -109.424 4 13 44
1973265N13258 1973 101 EP MM IRAH 1973-09-26 12:00:00 TS 25.8941 -109.000 35 hurdat_epa main 0 0 O________OO___ hurdat_epa EP091973 25.9000 -109.000 TS 35 0 25.9000 -109.000 TC 35 25.8000 -109.000 6 11 48
1973265N13258 1973 101 EP MM IRAH 1973-09-26 15:00:00 TS 26.2371 -108.557 main 0 0 P________P____ EP091973 26.2371 -108.557 TS 30 -1 26.2371 -108.557 TC 30 6 10 53
1973265N13258 1973 101 EP MM IRAH 1973-09-26 18:00:00 ET 26.5000 -108.100 25 hurdat_epa main 0 0 O________O____ hurdat_epa EP091973 26.5000 -108.100 ET 25 -4 26.5000 -108.100 25 6 10 62
1973265N13258 1973 101 EP MM IRAH 1973-09-26 21:00:00 ET 26.7131 -107.573 main 0 0 P________P____ EP091973 26.7131 -107.573 ET 25 -4 26.7131 -107.573 25 6 11 68
1973265N13258 1973 101 EP MM IRAH 1973-09-27 00:00:00 ET 26.9000 -107.000 25 hurdat_epa main 0 O________O____ hurdat_epa EP091973 26.9000 -107.000 ET 25 -4 26.9000 -107.000 25 11 70

IBTrACS Databaseについて

本データベースは、米国NOAAが公開する1842年以降の世界の熱帯低気圧のベストトラックデータアーカイブInternational Best Track Archive for Climate Stewardship (IBTrACS)を、ウェブで閲覧しやすい形式に変換したものです。

最終更新日:2021-11-26